Capitola, California
Current Conditions -  °F | °C
As of 2:11 AM on Thursday 18 Dec 2014 (Local Time) from KWVI Reporting Station
Overcast Overcast  
Wind Chill: 53°   Ceiling: 2300
Heat Index: 53°   Visibility: 10mi
Dew Point: 50°   Wind: 0mph
Humidity: 89%   Direction: NA
Pressure: 30.1"   Gusts: NA
Location:  36.97°N, 121.95°W
Report Text: KWVI 181011Z AUTO 00000KT 10SM BKN023 OVC031 12/10 A3010 RMK AO2 T01170100
Loading
Personal Weather Stations






























Interactive Weather Map New forecast layout! Learn more

10-Day Weather Forecast

Advertisements
Track Severe Weather on mobile